Emblem, WY (82422)

10:35 PM MST on January 30, 2015 (GMT -0700)
South Big Horn County | Change Station
CLOSE
Current Station
Airport
Location: Greybull,
Elevation: 3934 ft
Nearby Weather Stations
Active Advisory: Special Statement

Elev 3934 ft 44.52 °N, 108.08 °W | Updated 42 minutes ago

Partly Cloudy
Partly Cloudy
25 °F
Feels Like 25 °F
N
0
Wind Variable Wind from North

Today
High -- | Low -- °F
--% Chance of Precip.
Yesterday
High -- | Low -- °F
Precip. -- in
7:34 AM 5:19 PM
Waxing Gibbous, 87% visible
Pressure 30.25 in
Visibility 0.2 miles
Clouds
Dew Point 24 °F
Humidity 96%
Rainfall 0.00 in
Snow Depth Not available.
UV Not available.
Pollen .10 out of 12
Air Quality Not available.
Flu Activity Not available.
METAR KGEY 310453Z AUTO 00000KT 1/4SM FZFG VV001 M04/M04 A3012 RMK AO2 SLP243 T10391044

More Conditions Fewer Conditions

Pressure 30.25 in
Visibility 0.2 miles
Clouds
Dew Point 24 °F
Humidity 96%
Rainfall 0.00 in
Snow Depth Not available.
UV Not available.
Pollen .10 out of 12
Air Quality Not available.
Flu Activity Not available.
METAR KGEY 310453Z AUTO 00000KT 1/4SM FZFG VV001 M04/M04 A3012 RMK AO2 SLP243 T10391044

More Conditions Fewer Conditions

10-Day Weather Forecast

Almanac

Astronomy

Jan. 30, 2015 Rise Set
Actual Time
Civil Twilight
Nautical Twilight
Astronomical Twilight
Moon
Length of Visible Light
Length of Day
Tomorrow will be .
, % of the Moon is Illuminated

Today's Extremes

State Highs State Lows

Community

WunderPhotos

Upload Photos

1,792,005 photos uploaded!

WunderBlogs® & News

Nearby

Air Quality

  Air Quality AQ Index Pollutant
Not available.

Snow Depth

Station Depth Elevation

Earthquake Activity

City Distance Mag. Time & Date
Minimum magnitude displayed is 2.5.

Coastal Water Temperatures

Place Temperature

Nearby Weather Stations